Time;durP1;ratioP1;P1;durP2;ratioP2;P2;SDS_P1;SDS_P2;PMS_P1;PMS_P2;Temp;Humidity;BMP_temperature;BMP_pressure;BME280_temperature;BME280_humidity;BME280_pressure;Samples;Min_cycle;Max_cycle;Signal;HPM_P1;HPM_P2
2021/12/05 00:21:59;;;;;;;4.90;1.27;;;;;;;11.95;49.37;99688.94;5042579;28;20033;-58
2021/12/05 00:24:28;;;;;;;12.43;1.55;;;;;;;11.95;48.98;99686.25;5042506;28;20021;-59
2021/12/05 00:27:01;;;;;;;7.28;1.30;;;;;;;11.94;48.63;99692.63;5043092;28;20028;-58
2021/12/05 00:56:08;;;;;;;8.15;1.63;;;;;;;11.76;49.23;99697.28;5042845;28;20377;-58
2021/12/05 01:09:24;;;;;;;5.50;1.08;;;;;;;11.67;49.22;99714.31;5041837;28;20505;-58
2021/12/05 01:12:17;;;;;;;10.98;1.10;;;;;;;11.66;49.27;99704.63;5034135;28;20105;-58
2021/12/05 01:17:36;;;;;;;10.50;1.27;;;;;;;11.65;48.90;99713.66;5034009;28;20509;-58
2021/12/05 01:20:05;;;;;;;;;;;;;;;11.63;48.89;99708.47;5033621;28;20025;-58
2021/12/05 01:22:33;;;;;;;4.20;1.10;;;;;;;11.63;49.02;99713.00;5033949;28;19909;-58
2021/12/05 01:25:16;;;;;;;4.80;1.20;;;;;;;11.59;49.18;99715.16;5034176;28;20021;-59
2021/12/05 01:27:48;;;;;;;9.23;1.45;;;;;;;11.60;49.43;99716.00;5034056;28;20022;-58
2021/12/05 01:30:53;;;;;;;11.20;1.50;;;;;;;11.56;49.59;99707.44;5033991;28;20508;-59
2021/12/05 01:33:15;;;;;;;6.15;1.48;;;;;;;11.56;49.06;99704.75;5032400;28;20041;-58
2021/12/05 01:38:25;;;;;;;10.82;1.27;;;;;;;11.57;49.46;99705.59;5033813;28;20041;-59
2021/12/05 01:41:10;;;;;;;11.43;1.42;;;;;;;11.56;48.60;99704.75;5033489;28;20111;-58
2021/12/05 01:57:10;;;;;;;18.75;1.70;;;;;;;11.61;49.34;99698.91;5027625;28;20123;-59
2021/12/05 02:29:37;;;;;;;3.90;0.80;;;;;;;11.45;49.22;99691.63;5037024;28;20032;-58
2021/12/05 02:43:08;;;;;;;1.92;0.90;;;;;;;11.39;48.88;99686.09;5036708;28;20060;-58
2021/12/05 02:45:28;;;;;;;6.53;1.17;;;;;;;11.42;49.12;99685.75;5036352;28;20038;-59
2021/12/05 02:47:54;;;;;;;6.50;1.08;;;;;;;11.43;49.53;99687.44;5036587;28;20086;-64
2021/12/05 02:50:23;;;;;;;6.35;0.93;;;;;;;11.23;49.31;99643.13;5036894;28;20398;-58
2021/12/05 02:52:49;;;;;;;10.52;1.02;;;;;;;11.38;48.74;99676.38;5037073;28;20025;-58
2021/12/05 02:55:34;;;;;;;3.60;1.23;;;;;;;11.37;49.25;99682.72;5035372;28;20159;-58
2021/12/05 02:58:02;;;;;;;4.70;0.75;;;;;;;11.37;49.35;99674.69;5036388;28;20033;-58
2021/12/05 03:00:36;;;;;;;4.80;0.85;;;;;;;11.36;49.30;99675.69;5036477;28;20029;-58
2021/12/05 03:03:03;;;;;;;2.85;0.77;;;;;;;11.37;49.14;99669.31;5036488;28;20029;-58
2021/12/05 03:05:29;;;;;;;5.70;0.60;;;;;;;11.38;49.03;99679.06;5033844;28;20087;-59
2021/12/05 03:08:00;;;;;;;2.92;0.95;;;;;;;11.36;48.96;99662.31;5034788;28;20485;-59
2021/12/05 03:10:28;;;;;;;3.78;1.08;;;;;;;11.40;49.11;99667.16;5036425;28;20382;-58
2021/12/05 03:12:54;;;;;;;4.75;0.82;;;;;;;11.36;49.26;99654.25;5036152;28;20058;-58
2021/12/05 03:15:20;;;;;;;3.08;0.70;;;;;;;11.35;48.79;99657.94;5036182;28;20030;-58
2021/12/05 03:17:45;;;;;;;3.90;0.57;;;;;;;11.36;49.07;99654.25;5036092;28;20029;-58
2021/12/05 03:20:12;;;;;;;4.68;0.73;;;;;;;11.35;49.26;99647.22;5036015;28;20041;-59
2021/12/05 03:22:38;;;;;;;0.68;0.60;;;;;;;11.34;49.21;99645.50;5036193;28;20053;-59
2021/12/05 03:25:05;;;;;;;2.20;0.70;;;;;;;11.31;48.95;99643.16;5018241;28;20056;-58
2021/12/05 03:27:30;;;;;;;1.48;0.77;;;;;;;11.33;49.67;99642.03;5035908;28;20032;-58
2021/12/05 03:29:56;;;;;;;1.67;0.73;;;;;;;11.35;49.34;99644.53;5036066;28;20021;-59
2021/12/05 03:32:21;;;;;;;3.15;0.73;;;;;;;11.31;49.03;99644.00;5035983;28;20029;-59
2021/12/05 03:34:46;;;;;;;0.68;0.68;;;;;;;11.34;48.73;99643.69;5034773;28;20017;-58
2021/12/05 03:37:12;;;;;;;1.25;0.63;;;;;;;11.35;49.02;99655.25;5034526;28;20085;-58
2021/12/05 03:39:37;;;;;;;2.70;0.82;;;;;;;11.34;48.52;99653.56;5036225;28;20067;-58
2021/12/05 03:42:04;;;;;;;2.78;0.52;;;;;;;11.33;49.24;99658.09;5035202;28;20049;-58
2021/12/05 03:44:33;;;;;;;1.02;0.43;;;;;;;11.32;49.10;99660.94;5034226;28;20021;-58
2021/12/05 03:46:59;;;;;;;1.85;1.10;;;;;;;11.31;48.98;99656.56;5035724;28;20029;-58
2021/12/05 03:49:25;;;;;;;2.42;0.77;;;;;;;11.32;49.35;99661.78;5035728;28;20025;-58
2021/12/05 03:51:56;;;;;;;4.13;0.65;;;;;;;11.31;49.07;99664.59;5035657;28;20033;-59
2021/12/05 03:54:22;;;;;;;0.50;0.45;;;;;;;11.31;48.83;99667.28;5035559;28;20034;-58
2021/12/05 03:56:48;;;;;;;2.28;0.70;;;;;;;11.32;49.08;99666.28;5034002;28;20392;-58
2021/12/05 03:59:15;;;;;;;1.58;0.77;;;;;;;11.28;48.54;99652.38;5034538;28;20036;-58
2021/12/05 04:01:41;;;;;;;0.63;0.50;;;;;;;11.36;49.15;99659.63;5035302;28;20060;-58
2021/12/05 04:04:07;;;;;;;3.50;1.02;;;;;;;11.37;49.18;99661.28;5034180;28;20037;-58
2021/12/05 04:06:32;;;;;;;3.97;0.57;;;;;;;11.35;48.99;99663.28;5035441;28;20037;-58
2021/12/05 04:09:00;;;;;;;1.02;1.02;;;;;;;11.36;49.04;99662.31;5035167;28;20528;-58
2021/12/05 04:11:32;;;;;;;0.93;0.60;;;;;;;11.37;48.93;99655.91;5035236;28;20083;-58
2021/12/05 04:13:58;;;;;;;1.52;0.73;;;;;;;11.39;48.84;99661.97;5034248;28;20480;-58
2021/12/05 04:16:24;;;;;;;3.65;0.73;;;;;;;11.40;49.09;99656.44;5035266;28;20029;-58
2021/12/05 04:18:49;;;;;;;3.03;0.47;;;;;;;11.43;48.18;99661.47;5034678;28;20029;-58
2021/12/05 04:21:16;;;;;;;4.28;0.55;;;;;;;11.44;48.93;99656.97;5034865;28;20065;-59
2021/12/05 04:23:42;;;;;;;6.70;0.65;;;;;;;11.42;48.53;99649.06;5034777;28;20067;-59
2021/12/05 04:26:08;;;;;;;2.63;0.20;;;;;;;11.47;48.76;99651.28;5034889;28;20097;-58
2021/12/05 04:28:34;;;;;;;1.73;0.75;;;;;;;11.47;48.65;99640.53;5035103;28;20477;-58
2021/12/05 04:31:00;;;;;;;3.53;0.93;;;;;;;11.49;49.11;99638.53;5034713;28;20032;-58
2021/12/05 04:33:25;;;;;;;2.17;0.63;;;;;;;11.49;49.50;99643.91;5033487;28;20026;-58
2021/12/05 04:35:51;;;;;;;1.98;0.73;;;;;;;11.51;49.00;99641.88;5034590;28;20033;-59
2021/12/05 04:38:16;;;;;;;2.33;0.40;;;;;;;11.48;48.67;99636.84;5033431;28;20486;-59
2021/12/05 04:40:42;;;;;;;3.38;0.50;;;;;;;11.50;48.86;99629.50;5034733;28;20108;-58
2021/12/05 04:43:08;;;;;;;3.92;0.63;;;;;;;11.46;49.40;99628.97;5033143;28;20068;-58
2021/12/05 04:45:35;;;;;;;2.53;1.38;;;;;;;11.45;49.10;99635.34;5034469;28;20104;-59
2021/12/05 04:48:02;;;;;;;0.65;0.52;;;;;;;11.45;48.58;99637.16;5034524;28;20038;-58
2021/12/05 04:50:28;;;;;;;2.17;0.77;;;;;;;11.45;48.77;99642.53;5034616;28;20075;-58
2021/12/05 04:52:54;;;;;;;1.45;1.35;;;;;;;11.43;48.83;99644.53;5033142;28;20025;-58
2021/12/05 04:55:21;;;;;;;0.68;0.63;;;;;;;11.41;48.41;99646.56;5034559;28;20026;-58
2021/12/05 04:57:48;;;;;;;4.68;0.70;;;;;;;11.40;49.28;99644.88;5034217;28;20025;-58
2021/12/05 05:00:21;;;;;;;2.33;0.50;;;;;;;11.43;48.96;99650.75;5034567;28;20026;-59
2021/12/05 05:02:47;;;;;;;;;;;;;;;11.45;48.88;99642.53;5033536;28;20026;-58
2021/12/05 05:05:12;;;;;;;0.85;0.40;;;;;;;11.46;48.35;99644.22;5033824;28;19916;-58
2021/12/05 05:07:40;;;;;;;2.92;0.45;;;;;;;11.50;48.94;99640.22;5034303;28;20478;-58
2021/12/05 05:10:12;;;;;;;3.38;0.40;;;;;;;11.55;48.80;99643.25;5034429;28;20021;-58
2021/12/05 05:12:38;;;;;;;2.55;0.43;;;;;;;11.52;49.25;99635.53;5034250;28;20071;-60
2021/12/05 05:15:04;;;;;;;0.38;0.38;;;;;;;11.58;48.61;99642.91;5032768;28;20061;-59
2021/12/05 05:17:29;;;;;;;2.38;0.60;;;;;;;11.54;48.42;99641.56;5034053;28;20112;-58
2021/12/05 05:20:00;;;;;;;3.38;0.88;;;;;;;11.60;48.39;99646.25;5033877;28;20053;-58
2021/12/05 05:39:00;;;;;;;3.20;0.55;;;;;;;11.67;49.26;99636.53;5029455;28;20171;-59
2021/12/05 05:44:59;;;;;;;1.73;0.60;;;;;;;11.74;48.94;99651.00;5011760;28;20487;-59
2021/12/05 05:50:04;;;;;;;1.80;0.60;;;;;;;11.72;48.38;99647.66;5026166;28;20386;-58
2021/12/05 05:52:31;;;;;;;3.13;0.63;;;;;;;11.79;49.31;99662.09;5032548;28;20059;-58
2021/12/05 05:54:58;;;;;;;5.20;0.50;;;;;;;11.83;48.38;99647.34;5033412;28;20021;-58
2021/12/05 05:57:28;;;;;;;1.30;0.50;;;;;;;11.86;48.62;99657.75;5033276;28;20036;-58
2021/12/05 06:05:09;;;;;;;3.95;0.95;;;;;;;11.91;49.18;99658.09;5033212;28;20521;-58
2021/12/05 06:07:41;;;;;;;6.32;0.90;;;;;;;11.94;48.65;99655.06;5033561;28;20367;-58
2021/12/05 06:10:08;;;;;;;1.65;0.50;;;;;;;11.95;48.91;99662.09;5033593;28;20032;-59
2021/12/05 06:12:33;;;;;;;0.73;0.60;;;;;;;11.91;48.84;99660.78;5033515;28;20527;-58
2021/12/05 06:14:59;;;;;;;0.70;0.32;;;;;;;11.92;48.82;99669.66;5015988;28;20026;-58
2021/12/05 06:17:24;;;;;;;0.80;0.40;;;;;;;11.89;48.48;99661.94;5033520;28;20025;-58
2021/12/05 06:19:49;;;;;;;2.33;0.70;;;;;;;11.89;49.31;99675.34;5033636;28;20037;-58
2021/12/05 06:22:15;;;;;;;3.70;0.50;;;;;;;11.87;48.78;99675.50;5033252;28;20462;-58
2021/12/05 06:24:40;;;;;;;4.15;0.88;;;;;;;11.86;49.21;99676.53;5033030;28;20021;-58
2021/12/05 06:27:06;;;;;;;3.33;0.45;;;;;;;11.84;49.24;99681.19;5033184;28;20385;-58
2021/12/05 06:29:37;;;;;;;1.63;0.63;;;;;;;11.82;48.70;99683.22;5032124;28;20390;-58
2021/12/05 06:37:43;;;;;;;1.23;0.60;;;;;;;11.67;49.39;99679.44;5031881;28;20033;-57
2021/12/05 06:42:53;;;;;;;1.15;0.68;;;;;;;11.68;48.80;99682.00;5036291;28;20406;-57
2021/12/05 06:48:03;;;;;;;1.67;0.55;;;;;;;11.67;49.46;99700.91;5035504;28;20083;-58
2021/12/05 06:50:28;;;;;;;2.65;0.60;;;;;;;11.66;49.29;99694.72;5036794;28;20455;-58
2021/12/05 06:52:53;;;;;;;2.42;0.68;;;;;;;11.67;49.70;99693.72;5036326;28;20385;-58
2021/12/05 06:55:19;;;;;;;1.48;0.73;;;;;;;11.68;49.59;99691.88;5036684;28;20029;-58
2021/12/05 06:57:45;;;;;;;3.78;1.30;;;;;;;11.68;49.09;99695.41;5036812;28;20052;-58
2021/12/05 07:00:20;;;;;;;1.33;0.68;;;;;;;11.68;49.64;99691.88;5018839;28;20480;-57
2021/12/05 07:02:46;;;;;;;0.82;0.60;;;;;;;11.69;49.55;99693.59;5036387;28;20032;-57
2021/12/05 07:05:32;;;;;;;3.95;1.40;;;;;;;11.68;49.57;99692.72;5036347;28;20029;-57
2021/12/05 07:07:56;;;;;;;3.20;1.30;;;;;;;11.68;49.57;99691.88;5036162;28;20030;-58
2021/12/05 07:10:22;;;;;;;3.95;1.27;;;;;;;11.68;49.53;99697.25;5036151;28;20033;-58
2021/12/05 07:26:09;;;;;;;1.60;0.55;;;;;;;11.65;49.13;99702.94;5036156;28;20026;-57
2021/12/05 07:42:24;;;;;;;1.77;0.77;;;;;;;11.78;48.87;99737.38;5035320;28;20049;-57
2021/12/05 07:44:52;;;;;;;2.10;1.17;;;;;;;11.78;50.01;99740.88;5035631;28;20474;-57
2021/12/05 07:47:20;;;;;;;0.75;0.55;;;;;;;11.75;50.04;99735.88;5035429;28;20037;-57
2021/12/05 07:49:49;;;;;;;1.67;1.25;;;;;;;11.75;49.86;99749.28;5035671;28;20084;-57
2021/12/05 07:52:19;;;;;;;1.73;1.15;;;;;;;11.76;50.47;99742.88;5034786;28;20026;-58
2021/12/05 07:54:50;;;;;;;1.20;1.05;;;;;;;11.77;49.39;99749.94;5035335;28;20014;-58
2021/12/05 07:57:28;;;;;;;2.42;1.50;;;;;;;11.83;49.97;99759.19;5034182;28;20032;-58
2021/12/05 08:00:07;;;;;;;2.97;1.33;;;;;;;11.82;49.66;99758.34;5035401;28;20032;-58
2021/12/05 08:16:16;;;;;;;3.47;1.02;;;;;;;11.87;49.35;99777.47;5045653;28;20044;-57
2021/12/05 08:18:41;;;;;;;1.52;1.02;;;;;;;11.92;49.52;99785.88;5053585;28;20063;-58
2021/12/05 08:21:08;;;;;;;2.25;1.02;;;;;;;11.94;49.13;99778.50;5055032;28;20034;-57
2021/12/05 08:23:34;;;;;;;1.88;1.40;;;;;;;11.93;49.72;99782.19;5054749;28;20025;-58
2021/12/05 08:26:12;;;;;;;4.60;1.13;;;;;;;11.94;49.80;99780.34;5054470;28;20025;-57
2021/12/05 08:31:14;;;;;;;3.80;1.15;;;;;;;11.98;50.12;99782.53;5054979;28;20029;-58
2021/12/05 08:36:57;;;;;;;2.47;1.23;;;;;;;11.99;49.32;99792.28;5054580;28;20017;-58
2021/12/05 09:22:52;;;;;;;3.08;1.02;;;;;;;12.19;50.08;99835.78;5053882;28;20029;-58
2021/12/05 09:53:01;;;;;;;1.15;0.80;;;;;;;12.14;49.44;99865.78;5053853;28;20398;-58
2021/12/05 10:08:50;;;;;;;2.55;1.20;;;;;;;12.41;49.26;99888.88;5053467;28;20146;-58
2021/12/05 10:11:29;;;;;;;3.50;1.15;;;;;;;12.45;50.00;99892.06;5053603;28;20064;-58
2021/12/05 10:16:52;;;;;;;0.77;0.68;;;;;;;12.47;50.14;99892.75;5056264;28;20028;-57
2021/12/05 10:19:56;;;;;;;1.75;1.02;;;;;;;12.53;49.94;99897.47;5057207;28;20025;-57
2021/12/05 10:26:25;;;;;;;1.42;0.93;;;;;;;12.58;49.16;99908.53;5055734;28;20121;-58
2021/12/05 10:34:23;;;;;;;2.15;1.23;;;;;;;12.59;49.04;99910.25;5056793;28;20071;-58
2021/12/05 10:37:06;;;;;;;2.17;1.30;;;;;;;12.61;49.11;99910.91;5056501;28;20159;-57
2021/12/05 10:39:32;;;;;;;1.23;0.93;;;;;;;12.64;50.12;99914.09;5055976;28;20025;-58
2021/12/05 10:42:13;;;;;;;3.13;1.08;;;;;;;12.64;49.81;99915.94;5056401;28;20071;-58
2021/12/05 10:44:44;;;;;;;4.18;1.50;;;;;;;12.59;50.08;99908.38;5055427;28;20359;-58
2021/12/05 10:47:09;;;;;;;0.90;0.90;;;;;;;12.64;49.65;99915.94;5056641;28;20032;-58
2021/12/05 10:49:35;;;;;;;2.55;1.52;;;;;;;12.63;49.17;99917.78;5055866;28;20033;-58
2021/12/05 10:52:01;;;;;;;2.40;1.58;;;;;;;12.59;49.87;99912.94;5054777;28;20025;-57
2021/12/05 10:54:27;;;;;;;1.40;1.00;;;;;;;12.57;50.06;99917.59;5056632;28;20029;-58
2021/12/05 10:57:02;;;;;;;1.88;1.30;;;;;;;12.62;49.39;99917.94;5056601;28;20037;-57
2021/12/05 10:59:36;;;;;;;4.47;1.25;;;;;;;12.60;49.77;99925.34;5056337;28;20493;-58
2021/12/05 11:02:24;;;;;;;3.85;1.55;;;;;;;12.59;49.86;99923.66;5056277;28;20040;-57
2021/12/05 11:04:50;;;;;;;1.27;0.90;;;;;;;12.62;50.15;99920.63;5054805;28;20029;-58
2021/12/05 11:07:19;;;;;;;2.72;1.70;;;;;;;12.63;49.02;99925.84;5056150;28;20021;-58
2021/12/05 11:09:57;;;;;;;3.00;1.50;;;;;;;12.67;50.65;99926.38;5056190;28;20464;-58
2021/12/05 11:12:31;;;;;;;3.83;1.52;;;;;;;12.72;50.06;99930.25;5056184;28;20455;-58
2021/12/05 11:15:01;;;;;;;2.15;1.20;;;;;;;12.77;49.38;99929.75;5056082;28;20021;-58
2021/12/05 11:17:37;;;;;;;2.95;1.38;;;;;;;12.80;49.84;99921.34;5055875;28;20021;-57
2021/12/05 11:20:02;;;;;;;2.40;1.35;;;;;;;12.91;49.97;99922.88;5056014;28;20021;-58
2021/12/05 11:22:31;;;;;;;1.70;1.30;;;;;;;12.91;49.35;99918.34;5055962;28;20544;-58
2021/12/05 11:24:58;;;;;;;4.05;1.90;;;;;;;12.99;49.20;99921.03;5054630;28;20052;-57
2021/12/05 11:27:35;;;;;;;3.55;1.40;;;;;;;13.06;50.10;99930.13;5053441;28;20047;-58
2021/12/05 11:30:10;;;;;;;1.55;1.10;;;;;;;13.15;49.53;99922.94;5055912;28;20025;-58
2021/12/05 11:32:54;;;;;;;3.67;1.23;;;;;;;13.27;49.34;99932.31;5056238;28;20032;-57
2021/12/05 11:35:20;;;;;;;1.55;1.10;;;;;;;13.37;48.75;99928.44;5056211;28;20432;-58
2021/12/05 11:38:03;;;;;;;1.15;1.05;;;;;;;13.48;48.77;99932.66;5055893;28;20082;-58
2021/12/05 11:40:42;;;;;;;1.88;1.10;;;;;;;13.53;50.18;99924.06;5055854;28;20108;-58
2021/12/05 11:43:09;;;;;;;3.78;0.98;;;;;;;13.58;49.22;99916.31;5055476;28;20498;-58
2021/12/05 11:45:49;;;;;;;4.65;0.95;;;;;;;13.64;49.45;99935.34;5055692;28;20039;-58
2021/12/05 11:48:21;;;;;;;1.63;1.15;;;;;;;13.68;48.60;99933.16;5055691;28;20377;-58
2021/12/05 11:50:47;;;;;;;1.33;0.90;;;;;;;13.68;48.54;99935.84;5055503;28;20020;-58
2021/12/05 11:53:12;;;;;;;1.35;0.90;;;;;;;13.65;48.52;99944.25;5055815;28;20028;-58
2021/12/05 11:55:37;;;;;;;1.15;0.80;;;;;;;13.60;48.64;99943.91;5055661;28;20100;-58
2021/12/05 11:58:15;;;;;;;0.80;0.80;;;;;;;13.56;49.70;99946.13;5055606;28;20033;-58
2021/12/05 12:00:41;;;;;;;1.50;1.00;;;;;;;13.53;49.56;99942.91;5054317;28;20389;-58
2021/12/05 12:03:06;;;;;;;1.08;0.98;;;;;;;13.52;49.90;99951.97;5055271;28;20028;-58
2021/12/05 12:05:34;;;;;;;5.18;1.10;;;;;;;13.61;48.42;99950.97;5053996;28;20477;-58
2021/12/05 12:08:07;;;;;;;0.95;0.80;;;;;;;13.68;48.14;99947.41;5055438;28;20028;-58
2021/12/05 12:10:48;;;;;;;1.38;0.70;;;;;;;13.68;49.60;99939.34;5054259;28;20032;-58
2021/12/05 12:13:18;;;;;;;1.02;0.70;;;;;;;13.64;49.68;99953.31;5055536;28;20033;-58
2021/12/05 12:15:44;;;;;;;1.35;0.70;;;;;;;13.60;49.05;99951.97;5053988;28;20155;-58
2021/12/05 12:18:18;;;;;;;1.23;1.10;;;;;;;13.53;48.72;99940.22;5037112;28;20166;-58
2021/12/05 12:20:46;;;;;;;1.15;0.90;;;;;;;13.52;49.34;99944.75;5055351;28;20170;-58
2021/12/05 12:23:15;;;;;;;1.30;0.90;;;;;;;13.55;49.21;99954.34;5054998;28;20025;-58
2021/12/05 12:25:42;;;;;;;0.73;0.73;;;;;;;13.51;48.79;99953.84;5054727;28;20029;-58
2021/12/05 12:28:09;;;;;;;2.80;1.83;;;;;;;13.57;48.39;99957.72;5054858;28;20033;-58
2021/12/05 12:30:41;;;;;;;1.45;0.90;;;;;;;13.58;48.23;99952.16;5053606;28;20478;-58
2021/12/05 12:33:16;;;;;;;3.80;0.80;;;;;;;13.60;48.91;99951.97;5036825;28;20033;-58
2021/12/05 12:35:44;;;;;;;0.60;0.60;;;;;;;13.57;48.33;99955.03;5054789;28;20024;-58
2021/12/05 12:38:19;;;;;;;0.85;0.85;;;;;;;13.60;48.93;99962.72;5054498;28;20093;-58
2021/12/05 12:40:58;;;;;;;1.92;0.70;;;;;;;13.55;48.10;99962.41;5054696;28;20067;-58
2021/12/05 12:43:26;;;;;;;0.80;0.80;;;;;;;13.60;49.61;99968.13;5054337;28;20044;-58
2021/12/05 12:45:52;;;;;;;1.15;0.90;;;;;;;13.59;47.86;99971.84;5054385;28;20025;-58
2021/12/05 12:48:18;;;;;;;1.25;1.00;;;;;;;13.58;48.29;99964.75;5054414;28;20025;-58
2021/12/05 12:50:52;;;;;;;1.20;1.10;;;;;;;13.65;49.17;99976.53;5054404;28;20033;-58
2021/12/05 12:53:27;;;;;;;0.80;0.80;;;;;;;13.64;48.74;99975.69;5054299;28;20104;-58
2021/12/05 12:56:00;;;;;;;3.28;0.93;;;;;;;13.69;49.20;99984.09;5053375;28;20055;-58
2021/12/05 12:58:49;;;;;;;1.70;1.00;;;;;;;13.70;48.89;99979.56;5054227;28;20448;-58
2021/12/05 13:04:36;;;;;;;1.45;1.35;;;;;;;13.72;49.02;99994.53;5053546;28;20025;-57
2021/12/05 13:10:13;;;;;;;0.90;0.73;;;;;;;13.69;49.18;99989.47;5054154;28;20516;-58
2021/12/05 13:12:44;;;;;;;1.92;0.88;;;;;;;13.68;48.01;99986.97;5053087;28;20028;-58
2021/12/05 13:15:20;;;;;;;1.02;0.80;;;;;;;13.69;48.49;99994.88;5054365;28;20381;-59
2021/12/05 13:17:51;;;;;;;1.23;1.15;;;;;;;13.70;49.00;99991.19;5053005;28;20025;-58
2021/12/05 13:20:23;;;;;;;0.85;0.85;;;;;;;13.69;48.06;99994.00;5052564;28;20020;-58
2021/12/05 13:23:08;;;;;;;1.17;0.75;;;;;;;13.69;47.87;100010.16;5052906;28;20024;-58
2021/12/05 13:25:56;;;;;;;0.60;0.60;;;;;;;13.67;48.28;100012.19;5053761;28;20032;-58
2021/12/05 13:28:31;;;;;;;1.63;1.00;;;;;;;13.63;49.29;100017.06;5053820;28;20386;-58
2021/12/05 13:30:58;;;;;;;1.73;0.90;;;;;;;13.61;49.24;100013.72;5054072;28;20021;-58
2021/12/05 13:33:28;;;;;;;2.30;0.90;;;;;;;13.60;48.65;100024.63;5053876;28;20032;-58
2021/12/05 13:35:58;;;;;;;3.13;1.23;;;;;;;13.60;49.18;100024.63;5053966;28;20116;-58
2021/12/05 13:38:40;;;;;;;3.03;1.10;;;;;;;13.53;48.79;100026.31;5054143;28;20060;-58
2021/12/05 13:41:09;;;;;;;1.23;1.10;;;;;;;13.52;47.69;100036.22;5053774;28;20095;-58
2021/12/05 13:43:35;;;;;;;3.30;1.52;;;;;;;13.50;49.26;100048.19;5053374;28;20137;-59
2021/12/05 13:46:03;;;;;;;5.00;1.63;;;;;;;13.45;47.97;100037.09;5053687;28;20472;-58
2021/12/05 13:48:29;;;;;;;8.65;1.92;;;;;;;13.45;48.27;100050.53;5053934;28;20489;-58
2021/12/05 13:51:04;;;;;;;2.20;1.27;;;;;;;13.39;47.72;100052.03;5052983;28;20032;-58
2021/12/05 13:53:35;;;;;;;1.48;1.23;;;;;;;13.43;48.50;100052.56;5053763;28;20100;-59
2021/12/05 13:56:08;;;;;;;1.23;1.08;;;;;;;13.43;47.75;100059.59;5053320;28;20108;-58
2021/12/05 13:58:40;;;;;;;1.10;1.00;;;;;;;13.42;48.14;100062.47;5053764;28;20037;-58
2021/12/05 14:01:26;;;;;;;1.23;0.98;;;;;;;13.43;48.07;100066.00;5053824;28;20056;-58
2021/12/05 14:04:00;;;;;;;1.48;0.82;;;;;;;13.42;48.99;100059.78;5053615;28;20032;-59
2021/12/05 14:07:01;;;;;;;1.95;0.88;;;;;;;13.42;48.59;100073.22;5037163;28;20072;-58
2021/12/05 14:09:35;;;;;;;1.85;1.25;;;;;;;13.39;48.69;100073.56;5052263;28;20107;-59
2021/12/05 14:12:07;;;;;;;2.85;2.10;;;;;;;13.38;48.98;100074.56;5053669;28;20484;-58
2021/12/05 14:14:40;;;;;;;5.97;1.83;;;;;;;13.38;47.77;100080.78;5053312;28;20025;-58
2021/12/05 14:17:07;;;;;;;1.98;1.38;;;;;;;13.37;48.07;100081.78;5052668;28;20021;-59
2021/12/05 14:19:35;;;;;;;2.20;1.08;;;;;;;13.36;48.94;100093.56;5048621;28;20048;-58
2021/12/05 14:22:03;;;;;;;1.05;0.77;;;;;;;13.33;48.24;100096.59;5053033;28;20126;-58
2021/12/05 14:24:33;;;;;;;2.17;1.10;;;;;;;13.32;48.70;100100.28;5051586;28;20043;-58
2021/12/05 14:27:01;;;;;;;2.05;0.95;;;;;;;13.32;47.70;100104.81;5051649;28;20035;-58
2021/12/05 14:29:28;;;;;;;2.92;1.05;;;;;;;13.28;48.19;100108.84;5053141;28;20024;-58
2021/12/05 14:32:10;;;;;;;1.88;0.80;;;;;;;13.28;48.55;100111.53;5053302;28;20032;-57
2021/12/05 14:34:35;;;;;;;1.30;1.20;;;;;;;13.25;48.02;100115.41;5048754;28;20114;-57
2021/12/05 14:37:06;;;;;;;1.40;1.30;;;;;;;13.24;48.32;100115.53;5051764;28;20649;-59
2021/12/05 14:39:35;;;;;;;1.13;0.98;;;;;;;13.23;48.64;100114.69;5053512;28;20520;-58
2021/12/05 14:42:04;;;;;;;1.63;1.15;;;;;;;13.21;49.15;100114.03;5052689;28;20051;-58
2021/12/05 14:44:30;;;;;;;5.82;1.60;;;;;;;13.19;48.76;100121.41;5051721;28;20031;-58
2021/12/05 14:47:08;;;;;;;1.55;1.23;;;;;;;13.20;48.62;100123.13;5052957;28;20366;-57
2021/12/05 14:49:38;;;;;;;1.70;1.27;;;;;;;13.20;48.03;100125.81;5051856;28;20040;-57
2021/12/05 14:52:07;;;;;;;1.30;1.13;;;;;;;13.20;48.57;100128.50;5051739;28;20120;-57
2021/12/05 14:54:35;;;;;;;1.15;1.05;;;;;;;13.15;48.17;100125.44;5052940;28;20071;-57
2021/12/05 14:57:08;;;;;;;1.67;0.80;;;;;;;13.14;48.10;100123.75;5053132;28;20381;-57
2021/12/05 14:59:34;;;;;;;3.53;1.75;;;;;;;13.20;47.80;100138.41;5051729;28;20017;-57
2021/12/05 15:01:59;;;;;;;1.88;1.67;;;;;;;13.18;48.88;100141.25;5054871;28;20048;-58
2021/12/05 15:04:31;;;;;;;1.55;1.25;;;;;;;13.18;48.05;100145.78;5056318;28;20485;-58
2021/12/05 15:06:57;;;;;;;1.50;1.17;;;;;;;13.17;48.65;100147.66;5055582;28;20024;-57
2021/12/05 15:09:28;;;;;;;1.75;1.40;;;;;;;13.16;48.02;100148.63;5055346;28;20124;-58
2021/12/05 15:12:16;;;;;;;4.35;1.45;;;;;;;13.15;48.81;100157.69;5056562;28;20115;-57
2021/12/05 15:14:43;;;;;;;2.10;1.40;;;;;;;13.15;48.65;100157.69;5055069;28;20017;-57
2021/12/05 15:17:13;;;;;;;1.73;1.42;;;;;;;13.14;47.95;100157.88;5038491;28;20032;-58
2021/12/05 15:19:42;;;;;;;2.33;1.23;;;;;;;13.14;48.26;100169.47;5055427;28;20079;-57
2021/12/05 15:22:09;;;;;;;4.70;1.55;;;;;;;13.13;48.58;100173.16;5036151;28;20021;-58
2021/12/05 15:24:34;;;;;;;1.35;1.25;;;;;;;13.11;48.11;100172.47;5036037;28;20057;-58
2021/12/05 15:27:04;;;;;;;1.50;1.13;;;;;;;13.14;48.15;100176.69;5035792;28;20107;-58
2021/12/05 15:29:30;;;;;;;3.13;1.45;;;;;;;13.14;49.35;100176.69;5036002;28;20036;-57
2021/12/05 15:31:57;;;;;;;4.03;1.90;;;;;;;13.14;48.58;100185.63;5035060;28;20029;-58
2021/12/05 15:34:29;;;;;;;2.88;1.80;;;;;;;13.14;48.55;100199.06;5035981;28;20021;-57
2021/12/05 15:36:55;;;;;;;3.90;1.85;;;;;;;13.10;48.17;100189.63;5034863;28;20072;-57
2021/12/05 15:39:24;;;;;;;4.15;2.17;;;;;;;13.12;48.54;100206.41;5036457;28;20367;-57
2021/12/05 15:41:52;;;;;;;1.75;1.65;;;;;;;13.12;48.61;100217.16;5035945;28;20064;-57
2021/12/05 15:44:31;;;;;;;1.20;1.10;;;;;;;13.11;48.93;100218.19;5035441;28;20017;-58
2021/12/05 15:47:01;;;;;;;3.97;2.38;;;;;;;13.10;48.56;100219.19;5034245;28;20029;-57
2021/12/05 15:49:43;;;;;;;3.45;2.10;;;;;;;13.10;48.33;100219.19;5035430;28;20025;-58
2021/12/05 15:52:08;;;;;;;3.88;2.10;;;;;;;13.08;49.15;100229.28;5035484;28;20025;-58
2021/12/05 15:54:34;;;;;;;2.75;1.85;;;;;;;13.08;49.40;100221.19;5035262;28;20033;-57
2021/12/05 15:57:18;;;;;;;2.25;1.70;;;;;;;13.08;49.16;100231.97;5034346;28;20091;-58
2021/12/05 15:59:45;;;;;;;3.17;1.92;;;;;;;13.07;49.18;100237.44;5034362;28;20547;-58
2021/12/05 16:02:11;;;;;;;5.60;2.33;;;;;;;13.07;48.31;100245.50;5034499;28;20040;-57
2021/12/05 16:04:38;;;;;;;2.00;1.27;;;;;;;13.05;48.53;100248.38;5035686;28;20029;-57
2021/12/05 16:07:08;;;;;;;1.90;1.50;;;;;;;13.06;49.27;100254.59;5054568;28;20081;-58
2021/12/05 16:09:35;;;;;;;3.70;1.92;;;;;;;13.02;48.68;100248.69;5054206;28;20025;-57
2021/12/05 16:12:10;;;;;;;3.50;1.70;;;;;;;13.04;48.27;100268.19;5053908;28;20048;-57
2021/12/05 16:14:38;;;;;;;2.05;1.50;;;;;;;13.02;48.25;100264.81;5054444;28;20021;-57
2021/12/05 16:17:33;;;;;;;3.25;2.15;;;;;;;13.01;48.29;100268.50;5054816;28;20133;-58
2021/12/05 16:20:15;;;;;;;5.78;2.83;;;;;;;13.04;48.88;100281.63;5050059;28;20067;-57
2021/12/05 16:22:54;;;;;;;4.03;2.30;;;;;;;13.04;49.44;100273.56;5054687;28;20021;-58
2021/12/05 16:25:20;;;;;;;4.72;2.83;;;;;;;13.04;48.68;100278.09;5053044;28;20305;-57
2021/12/05 16:27:53;;;;;;;7.07;2.55;;;;;;;13.04;49.26;100278.94;5054579;28;20053;-57
2021/12/05 16:30:25;;;;;;;4.35;2.42;;;;;;;13.03;49.26;100282.66;5053882;28;20053;-57
2021/12/05 16:32:52;;;;;;;7.43;2.67;;;;;;;13.06;48.53;100289.56;5054617;28;20465;-57
2021/12/05 16:35:29;;;;;;;7.20;2.53;;;;;;;13.07;48.97;100294.78;5054680;28;20029;-58
2021/12/05 16:37:55;;;;;;;5.13;2.53;;;;;;;13.08;48.55;100307.25;5054548;28;20029;-57
2021/12/05 16:40:21;;;;;;;3.17;2.35;;;;;;;13.04;49.02;100305.81;5053592;28;20029;-58
2021/12/05 16:42:47;;;;;;;3.45;2.42;;;;;;;13.04;49.42;100303.13;5053235;28;20055;-58
2021/12/05 20:13:59;;;;;;;16.10;5.35;;;;;;;12.75;49.94;100611.66;5035818;28;20064;-57
2021/12/05 20:16:26;;;;;;;9.13;5.22;;;;;;;12.75;49.75;100611.66;5035481;28;20042;-59
2021/12/05 20:18:52;;;;;;;8.40;4.43;;;;;;;12.73;48.47;100613.66;5034149;28;20514;-57
2021/12/05 20:21:18;;;;;;;6.72;4.13;;;;;;;12.73;48.75;100608.28;5035451;28;20037;-60